createdAt,value
2022-10-21T00:00:27.598Z,89.12
2022-10-21T00:01:29.493Z,89.30
2022-10-21T00:02:31.302Z,89.48
2022-10-21T00:03:33.523Z,89.75
2022-10-21T00:04:35.311Z,89.55
2022-10-21T00:05:36.937Z,89.42
2022-10-21T00:06:39.034Z,89.20
2022-10-21T00:07:40.880Z,89.14
2022-10-21T00:08:42.642Z,88.88
2022-10-21T00:09:44.442Z,88.92
2022-10-21T00:10:52.909Z,89.10
2022-10-21T00:11:54.656Z,89.26
2022-10-21T00:12:56.529Z,89.43
2022-10-21T00:13:58.391Z,89.47
2022-10-21T00:15:03.607Z,89.64
2022-10-21T00:16:12.789Z,89.60
2022-10-21T00:17:14.612Z,89.79
2022-10-21T00:18:16.272Z,89.93
2022-10-21T00:19:18.187Z,90.08
2022-10-21T00:20:20.260Z,90.17
2022-10-21T00:21:22.184Z,90.10
2022-10-21T00:22:24.035Z,89.94
2022-10-21T00:23:26.280Z,89.94
2022-10-21T00:24:28.297Z,89.91
2022-10-21T00:25:30.071Z,89.76
2022-10-21T00:26:36.225Z,89.69
2022-10-21T00:27:37.600Z,89.56
2022-10-21T00:28:40.846Z,89.55
2022-10-21T00:29:42.540Z,89.48
2022-10-21T00:30:45.471Z,89.44
2022-10-21T00:31:47.926Z,89.54
2022-10-21T00:32:49.725Z,89.38
2022-10-21T00:33:52.038Z,89.74
2022-10-21T00:34:53.826Z,89.74
2022-10-21T00:35:58.520Z,89.90
2022-10-21T00:37:00.442Z,90.20
2022-10-21T00:38:02.238Z,90.44
2022-10-21T00:39:04.200Z,90.45
2022-10-21T00:40:08.485Z,90.49
2022-10-21T00:41:11.522Z,90.79
2022-10-21T00:42:19.030Z,90.99
2022-10-21T00:43:22.405Z,91.15
2022-10-21T00:44:26.144Z,91.43
2022-10-21T00:45:29.823Z,91.51
2022-10-21T00:46:50.675Z,91.39
2022-10-21T00:48:05.302Z,91.47
2022-10-21T00:49:26.655Z,91.59
2022-10-21T00:50:41.691Z,91.38
2022-10-21T00:51:45.163Z,91.53
2022-10-21T00:52:47.384Z,92.14
2022-10-21T00:53:51.072Z,92.43
2022-10-21T00:54:56.574Z,92.91
2022-10-21T00:56:02.048Z,93.00
2022-10-21T00:57:04.278Z,93.22
2022-10-21T00:58:07.544Z,93.25
2022-10-21T00:59:09.662Z,93.34
2022-10-21T01:00:13.897Z,93.32
2022-10-21T01:01:19.183Z,93.87
2022-10-21T01:02:21.739Z,94.01
2022-10-21T01:03:25.922Z,94.30
2022-10-21T01:04:28.059Z,94.63
2022-10-21T01:05:31.302Z,94.87
2022-10-21T01:06:36.525Z,95.23
2022-10-21T01:07:41.073Z,95.35
2022-10-21T01:08:43.107Z,95.72
2022-10-21T01:09:45.064Z,95.79
2022-10-21T01:10:47.395Z,96.02
2022-10-21T01:11:49.657Z,96.06
2022-10-21T01:13:01.960Z,96.19
2022-10-21T01:14:13.048Z,96.46
2022-10-21T01:15:26.978Z,96.69
2022-10-21T01:16:48.423Z,96.57
2022-10-21T01:18:06.155Z,96.39
2022-10-21T01:19:28.300Z,96.49
2022-10-21T01:20:37.379Z,96.51
2022-10-21T01:21:42.852Z,96.50
2022-10-21T01:23:20.712Z,96.53
2022-10-21T01:24:43.141Z,96.85
2022-10-21T01:26:03.704Z,96.98
2022-10-21T01:27:24.089Z,96.85
2022-10-21T01:28:45.121Z,96.76
2022-10-21T01:30:02.963Z,96.68
2022-10-21T01:31:26.973Z,96.68
2022-10-21T01:34:13.252Z,96.40
2022-10-21T01:35:30.287Z,96.52
2022-10-21T01:36:38.648Z,96.65
2022-10-21T01:37:47.109Z,96.85
2022-10-21T01:39:08.043Z,96.79
2022-10-21T01:40:19.761Z,96.80
2022-10-21T01:41:28.484Z,96.90
2022-10-21T01:42:40.385Z,96.92
2022-10-21T01:43:48.991Z,96.95
2022-10-21T01:44:57.316Z,96.87
2022-10-21T01:46:06.547Z,96.86
2022-10-21T01:47:12.642Z,97.10
2022-10-21T01:48:21.209Z,97.16
2022-10-21T01:49:35.769Z,97.09
2022-10-21T01:50:41.470Z,97.43
2022-10-21T01:51:44.368Z,97.94
2022-10-21T01:52:49.873Z,98.06
2022-10-21T01:54:04.286Z,98.12
2022-10-21T01:55:10.074Z,98.23
2022-10-21T01:56:15.301Z,98.17
2022-10-21T01:57:20.495Z,98.17
2022-10-21T01:58:25.923Z,98.37
2022-10-21T01:59:30.724Z,98.42
2022-10-21T02:00:36.975Z,98.37
2022-10-21T02:01:40.100Z,98.43
2022-10-21T02:02:45.509Z,98.48
2022-10-21T02:03:50.972Z,98.54
2022-10-21T02:04:55.413Z,98.57
2022-10-21T02:05:57.846Z,98.61
2022-10-21T02:07:00.483Z,98.62
2022-10-21T02:08:03.134Z,98.49
2022-10-21T02:09:05.232Z,98.15
2022-10-21T02:10:08.170Z,98.05
2022-10-21T02:11:11.685Z,97.90
2022-10-21T02:12:16.004Z,97.93
2022-10-21T02:13:24.491Z,97.85
2022-10-21T02:14:36.008Z,97.85
2022-10-21T02:15:40.028Z,97.98
2022-10-21T02:16:43.634Z,98.19
2022-10-21T02:17:49.183Z,98.40
2022-10-21T02:18:50.903Z,98.50
2022-10-21T02:19:56.101Z,98.54
2022-10-21T02:21:04.415Z,98.44
2022-10-21T02:22:09.537Z,98.42
2022-10-21T02:23:14.528Z,98.55
2022-10-21T02:24:23.025Z,98.50
2022-10-21T02:25:28.590Z,98.36
2022-10-21T02:26:31.206Z,98.15
2022-10-21T02:27:33.384Z,98.20
2022-10-21T02:28:35.631Z,98.52
2022-10-21T02:29:41.226Z,98.45
2022-10-21T02:30:52.843Z,98.45
2022-10-21T02:32:19.837Z,98.48
2022-10-21T02:33:25.309Z,98.40
2022-10-21T02:34:50.222Z,98.19
2022-10-21T02:36:04.427Z,98.01
2022-10-21T02:37:41.872Z,97.85
2022-10-21T02:38:50.300Z,97.94
2022-10-21T02:39:55.782Z,98.09
2022-10-21T02:41:01.515Z,98.04
2022-10-21T02:42:06.764Z,97.77
2022-10-21T02:43:24.110Z,97.82
2022-10-21T02:44:26.052Z,97.75
2022-10-21T02:45:28.054Z,97.72
2022-10-21T02:46:39.149Z,97.81
2022-10-21T02:47:42.996Z,97.82
2022-10-21T02:48:46.980Z,98.17
2022-10-21T02:49:48.716Z,98.17
2022-10-21T02:50:51.762Z,98.20
2022-10-21T02:51:54.067Z,98.09
2022-10-21T02:52:56.876Z,98.12
2022-10-21T02:53:58.870Z,98.38
2022-10-21T02:55:00.615Z,98.63
2022-10-21T02:56:03.130Z,98.54
2022-10-21T02:57:04.847Z,98.60
2022-10-21T02:58:06.666Z,98.60
2022-10-21T02:59:08.865Z,98.32
2022-10-21T03:00:12.386Z,98.22
2022-10-21T03:01:15.396Z,98.29
2022-10-21T03:02:17.388Z,98.23
2022-10-21T03:03:19.409Z,98.23
2022-10-21T03:04:22.347Z,98.20
2022-10-21T03:05:24.807Z,98.20
2022-10-21T03:06:26.959Z,98.29
2022-10-21T03:07:28.990Z,98.23
2022-10-21T03:08:30.736Z,98.24
2022-10-21T03:09:32.651Z,98.24
2022-10-21T03:10:35.996Z,98.32
2022-10-21T03:11:37.931Z,98.26
2022-10-21T03:12:39.648Z,98.16
2022-10-21T03:13:41.299Z,98.28
2022-10-21T03:14:43.100Z,98.44
2022-10-21T03:15:44.756Z,98.63
2022-10-21T03:16:46.766Z,98.64
2022-10-21T03:17:48.603Z,98.75
2022-10-21T03:18:50.416Z,98.84
2022-10-21T03:19:52.291Z,99.12
2022-10-21T03:20:54.803Z,99.12
2022-10-21T03:21:56.847Z,99.28
2022-10-21T03:22:58.903Z,99.16
2022-10-21T03:24:01.675Z,99.05
2022-10-21T03:25:04.656Z,99.05
2022-10-21T03:26:06.924Z,98.94
2022-10-21T03:27:09.095Z,98.96
2022-10-21T03:28:11.566Z,98.89
2022-10-21T03:29:14.185Z,98.88
2022-10-21T03:30:16.574Z,98.89
2022-10-21T03:31:18.252Z,98.92
2022-10-21T03:32:19.980Z,98.82
2022-10-21T03:33:22.180Z,98.71
2022-10-21T03:34:24.035Z,98.76
2022-10-21T03:35:27.577Z,98.75
2022-10-21T03:36:29.553Z,98.69
2022-10-21T03:37:31.328Z,98.51
2022-10-21T03:38:33.227Z,98.34
2022-10-21T03:39:34.982Z,98.30
2022-10-21T03:40:37.218Z,98.12
2022-10-21T03:41:39.395Z,98.13
2022-10-21T03:42:41.501Z,98.16
2022-10-21T03:43:43.587Z,98.34
2022-10-21T03:44:45.323Z,98.42
2022-10-21T03:45:47.486Z,98.47
2022-10-21T03:46:49.356Z,98.45
2022-10-21T03:47:51.232Z,98.41
2022-10-21T03:48:53.158Z,98.31
2022-10-21T03:49:55.317Z,98.33
2022-10-21T03:50:57.382Z,98.49
2022-10-21T03:51:59.219Z,98.53
2022-10-21T03:53:09.924Z,98.58
2022-10-21T03:54:06.521Z,98.58
2022-10-21T03:55:08.864Z,98.61
2022-10-21T03:56:12.763Z,98.59
2022-10-21T03:57:14.629Z,98.53
2022-10-21T03:58:17.589Z,98.59
2022-10-21T03:59:19.914Z,98.41
2022-10-21T04:00:24.330Z,98.40
2022-10-21T04:01:27.886Z,98.37
2022-10-21T04:02:30.386Z,98.03
2022-10-21T04:03:32.283Z,97.82
2022-10-21T04:04:34.835Z,97.70
2022-10-21T04:05:36.846Z,97.70
2022-10-21T04:06:38.740Z,97.11
2022-10-21T04:07:41.055Z,96.93
2022-10-21T04:08:43.948Z,96.56
2022-10-21T04:09:46.098Z,96.43
2022-10-21T04:10:49.049Z,96.50
2022-10-21T04:11:51.353Z,96.26
2022-10-21T04:12:53.140Z,96.20
2022-10-21T04:13:54.961Z,96.42
2022-10-21T04:14:56.819Z,96.32
2022-10-21T04:16:00.625Z,95.61
2022-10-21T04:17:07.307Z,95.51
2022-10-21T04:18:07.173Z,95.73
2022-10-21T04:19:16.091Z,95.81
2022-10-21T04:20:18.879Z,95.70
2022-10-21T04:21:20.760Z,95.64
2022-10-21T04:22:22.714Z,95.57
2022-10-21T04:23:24.675Z,95.50
2022-10-21T04:24:27.183Z,95.68
2022-10-21T04:25:28.990Z,95.78
2022-10-21T04:26:31.417Z,96.00
2022-10-21T04:27:33.282Z,95.21
2022-10-21T04:28:35.948Z,94.51
2022-10-21T04:29:37.730Z,94.23
2022-10-21T04:30:40.539Z,94.19
2022-10-21T04:31:42.526Z,94.15
2022-10-21T04:32:44.450Z,94.22
2022-10-21T04:33:47.210Z,93.87
2022-10-21T04:34:49.177Z,93.65
2022-10-21T04:35:54.077Z,93.44
2022-10-21T04:36:57.900Z,93.64
2022-10-21T04:37:59.971Z,93.59
2022-10-21T04:39:02.307Z,93.44
2022-10-21T04:40:06.697Z,93.58
2022-10-21T04:41:09.222Z,93.32
2022-10-21T04:42:11.471Z,93.32
2022-10-21T04:43:13.267Z,93.40
2022-10-21T04:44:15.135Z,93.42
2022-10-21T04:45:18.280Z,93.21
2022-10-21T04:46:20.201Z,93.19
2022-10-21T04:47:22.356Z,93.12
2022-10-21T04:48:24.395Z,93.18
2022-10-21T04:49:26.153Z,93.06
2022-10-21T04:50:28.041Z,93.03
2022-10-21T04:51:29.792Z,93.09
2022-10-21T04:52:31.977Z,93.39
2022-10-21T04:53:33.860Z,93.51
2022-10-21T04:54:35.572Z,93.40
2022-10-21T04:55:41.217Z,93.47
2022-10-21T04:56:43.145Z,93.34
2022-10-21T04:57:44.857Z,93.09
2022-10-21T04:58:47.783Z,92.99
2022-10-21T04:59:49.549Z,92.84
2022-10-21T05:00:52.582Z,92.76
2022-10-21T05:01:55.030Z,92.80
2022-10-21T05:02:58.559Z,92.25
2022-10-21T05:04:00.932Z,92.23
2022-10-21T05:05:04.101Z,92.33
2022-10-21T05:06:06.175Z,91.97
2022-10-21T05:07:08.392Z,92.00
2022-10-21T05:08:11.642Z,91.98
2022-10-21T05:09:14.547Z,91.95
2022-10-21T05:10:16.868Z,91.62
2022-10-21T05:11:18.762Z,91.75
2022-10-21T05:12:20.931Z,92.01
2022-10-21T05:13:23.776Z,92.31
2022-10-21T05:14:25.713Z,92.09
2022-10-21T05:15:27.452Z,92.13
2022-10-21T05:16:30.283Z,92.02
2022-10-21T05:17:32.005Z,92.32
2022-10-21T05:18:33.763Z,91.74
2022-10-21T05:19:36.020Z,91.08
2022-10-21T05:20:37.823Z,90.99
2022-10-21T05:21:39.551Z,90.99
2022-10-21T05:22:41.648Z,90.78
2022-10-21T05:23:43.687Z,90.91
2022-10-21T05:24:45.529Z,90.86
2022-10-21T05:25:48.052Z,90.86
2022-10-21T05:26:50.084Z,90.84
2022-10-21T05:27:51.724Z,90.66
2022-10-21T05:28:54.535Z,90.92
2022-10-21T05:29:56.784Z,91.05
2022-10-21T05:30:59.878Z,90.72
2022-10-21T05:32:03.113Z,90.55
2022-10-21T05:33:06.201Z,90.58
2022-10-21T05:34:08.166Z,90.09
2022-10-21T05:35:10.062Z,89.36
2022-10-21T05:36:12.885Z,89.02
2022-10-21T05:37:14.975Z,89.13
2022-10-21T05:38:16.610Z,89.30
2022-10-21T05:39:18.436Z,89.66
2022-10-21T05:40:20.263Z,89.21
2022-10-21T05:41:22.992Z,89.01
2022-10-21T05:42:25.435Z,88.94
2022-10-21T05:43:27.726Z,87.48
2022-10-21T05:44:30.075Z,87.48
2022-10-21T05:45:32.743Z,86.35
2022-10-21T05:46:34.690Z,86.82
2022-10-21T05:47:37.508Z,87.23
2022-10-21T05:48:39.350Z,87.23
2022-10-21T05:49:41.041Z,87.17
2022-10-21T05:50:44.966Z,87.50
2022-10-21T05:51:47.085Z,87.55
2022-10-21T05:52:50.128Z,87.66
2022-10-21T05:53:52.870Z,87.80
2022-10-21T05:54:55.203Z,87.66
2022-10-21T05:56:07.132Z,87.22
2022-10-21T05:57:09.356Z,87.45
2022-10-21T05:58:11.019Z,87.80
2022-10-21T05:59:13.591Z,88.08
2022-10-21T06:00:15.910Z,88.18
2022-10-21T06:01:18.875Z,87.53
2022-10-21T06:02:22.098Z,87.50
2022-10-21T06:03:27.219Z,86.20
2022-10-21T06:04:35.049Z,85.92
2022-10-21T06:05:34.777Z,85.48
2022-10-21T06:06:36.755Z,85.45
2022-10-21T06:07:38.639Z,86.08
2022-10-21T06:08:40.738Z,86.48
2022-10-21T06:09:42.785Z,86.82
2022-10-21T06:10:44.891Z,87.03
2022-10-21T06:11:46.962Z,87.46
2022-10-21T06:12:48.731Z,87.58
2022-10-21T06:13:50.628Z,87.54
2022-10-21T06:14:52.874Z,87.50
2022-10-21T06:15:55.862Z,87.78
2022-10-21T06:16:58.561Z,87.44
2022-10-21T06:18:00.252Z,86.82
2022-10-21T06:19:03.029Z,86.10
2022-10-21T06:20:06.016Z,85.93
2022-10-21T06:21:10.337Z,85.77
2022-10-21T06:22:12.221Z,85.73
2022-10-21T06:23:14.384Z,85.83
2022-10-21T06:24:16.276Z,86.17
2022-10-21T06:25:18.082Z,86.49
2022-10-21T06:26:20.216Z,86.28
2022-10-21T06:27:23.102Z,86.00
2022-10-21T06:28:27.008Z,85.57
2022-10-21T06:29:29.455Z,85.46
2022-10-21T06:30:31.682Z,85.71
2022-10-21T06:31:34.032Z,85.79
2022-10-21T06:32:36.127Z,85.79
2022-10-21T06:33:38.941Z,86.10
2022-10-21T06:34:40.883Z,86.03
2022-10-21T06:35:42.637Z,86.48
2022-10-21T06:36:44.354Z,89.59
2022-10-21T06:37:45.998Z,96.87
2022-10-21T06:38:47.627Z,94.35
2022-10-21T06:39:49.865Z,93.39
2022-10-21T06:40:53.071Z,92.55
2022-10-21T06:41:56.033Z,95.31
2022-10-21T06:43:03.219Z,95.31
2022-10-21T06:44:05.044Z,93.71
2022-10-21T06:45:06.987Z,90.45
2022-10-21T06:46:12.271Z,85.15
2022-10-21T06:47:14.111Z,82.96
2022-10-21T06:48:16.283Z,83.81
2022-10-21T06:49:18.103Z,84.81
2022-10-21T06:50:21.581Z,84.34
2022-10-21T06:51:24.017Z,92.46
2022-10-21T06:53:28.671Z,90.51
2022-10-21T06:54:31.782Z,84.56
2022-10-21T06:55:34.509Z,89.65
2022-10-21T06:56:38.716Z,89.70
2022-10-21T06:57:41.083Z,88.38
2022-10-21T06:58:43.517Z,93.47
2022-10-21T06:59:46.663Z,88.44
2022-10-21T07:00:48.704Z,83.25
2022-10-21T07:02:06.106Z,90.89
2022-10-21T07:02:55.373Z,83.46
2022-10-21T07:03:58.364Z,79.77
2022-10-21T07:05:00.139Z,79.77
2022-10-21T07:06:02.637Z,82.07
2022-10-21T07:07:04.519Z,84.88
2022-10-21T07:08:09.398Z,80.77
2022-10-21T07:09:11.307Z,82.10
2022-10-21T07:10:13.276Z,80.95
2022-10-21T07:11:16.178Z,83.11
2022-10-21T07:12:18.343Z,82.04
2022-10-21T07:13:25.650Z,81.77
2022-10-21T07:14:25.030Z,83.03
2022-10-21T07:15:26.637Z,82.51
2022-10-21T07:16:31.271Z,82.00
2022-10-21T07:17:33.162Z,84.99
2022-10-21T07:18:37.007Z,83.77
2022-10-21T07:19:39.853Z,83.08
2022-10-21T07:20:42.254Z,80.29
2022-10-21T07:21:44.222Z,79.10
2022-10-21T07:22:45.965Z,83.36
2022-10-21T07:23:50.266Z,78.01
2022-10-21T07:24:52.152Z,83.58
2022-10-21T07:25:54.250Z,77.72
2022-10-21T07:26:56.273Z,77.89
2022-10-21T07:27:57.860Z,77.37
2022-10-21T07:28:59.896Z,75.95
2022-10-21T07:30:02.824Z,75.54
2022-10-21T07:31:06.088Z,75.94
2022-10-21T07:32:08.133Z,75.91
2022-10-21T07:33:10.672Z,75.17
2022-10-21T07:34:12.542Z,75.12
2022-10-21T07:35:14.387Z,75.31
2022-10-21T07:36:21.581Z,76.54
2022-10-21T07:37:23.845Z,76.54
2022-10-21T07:38:25.613Z,75.72
2022-10-21T07:39:27.847Z,75.36
2022-10-21T07:40:30.420Z,75.41
2022-10-21T07:41:36.639Z,74.66
2022-10-21T07:42:39.052Z,75.21
2022-10-21T07:43:40.996Z,74.39
2022-10-21T07:44:42.764Z,74.56
2022-10-21T07:45:44.767Z,73.77
2022-10-21T07:46:48.464Z,74.23
2022-10-21T07:47:50.565Z,74.04
2022-10-21T07:48:52.577Z,73.83
2022-10-21T07:49:54.313Z,73.97
2022-10-21T07:51:03.762Z,73.73
2022-10-21T07:52:06.175Z,73.60
2022-10-21T07:53:12.520Z,73.80
2022-10-21T07:54:13.784Z,73.42
2022-10-21T07:55:17.003Z,73.20
2022-10-21T07:56:23.036Z,73.45
2022-10-21T07:57:24.993Z,72.88
2022-10-21T07:58:26.816Z,72.23
2022-10-21T07:59:29.124Z,71.66
2022-10-21T08:00:31.101Z,71.28
2022-10-21T08:01:33.437Z,72.03
2022-10-21T08:02:37.059Z,71.37
2022-10-21T08:03:39.719Z,71.31
2022-10-21T08:04:42.272Z,71.23
2022-10-21T08:05:44.006Z,70.67
2022-10-21T08:06:47.375Z,70.18
2022-10-21T08:07:49.443Z,70.01
2022-10-21T08:08:51.746Z,68.87
2022-10-21T08:09:56.575Z,68.71
2022-10-21T08:10:58.670Z,69.04
2022-10-21T08:12:00.667Z,68.72
2022-10-21T08:13:03.527Z,70.11
2022-10-21T08:14:08.217Z,70.11
2022-10-21T08:15:11.525Z,70.82
2022-10-21T08:16:13.974Z,73.40
2022-10-21T08:17:16.055Z,70.54
2022-10-21T08:18:19.465Z,68.84
2022-10-21T08:19:22.266Z,68.84
2022-10-21T08:20:24.466Z,68.14
2022-10-21T08:21:28.395Z,67.67
2022-10-21T08:22:32.337Z,78.71
2022-10-21T08:23:36.253Z,70.10
2022-10-21T08:24:41.414Z,70.16
2022-10-21T08:27:02.890Z,67.28
2022-10-21T08:28:07.114Z,73.77
2022-10-21T08:29:09.366Z,67.71
2022-10-21T08:30:12.681Z,68.75
2022-10-21T08:31:18.165Z,73.08
2022-10-21T08:32:20.152Z,78.35
2022-10-21T08:33:21.880Z,71.10
2022-10-21T08:34:24.691Z,65.70
2022-10-21T08:35:28.086Z,65.49
2022-10-21T08:36:31.135Z,66.13
2022-10-21T08:37:33.099Z,64.73
2022-10-21T08:38:35.155Z,65.52
2022-10-21T08:39:37.118Z,66.40
2022-10-21T08:40:42.638Z,65.64
2022-10-21T08:42:12.226Z,65.64
2022-10-21T08:43:23.618Z,66.69
2022-10-21T08:44:42.138Z,65.76
2022-10-21T08:45:51.063Z,68.09
2022-10-21T08:47:02.693Z,66.82
2022-10-21T08:48:08.332Z,66.54
2022-10-21T08:49:25.098Z,68.02
2022-10-21T08:50:37.263Z,65.94
2022-10-21T08:51:58.968Z,73.63
2022-10-21T08:53:04.487Z,67.51
2022-10-21T08:54:10.965Z,67.53
2022-10-21T08:55:19.235Z,63.01
2022-10-21T08:56:22.091Z,65.31
2022-10-21T08:57:25.503Z,65.81
2022-10-21T08:58:28.720Z,65.56
2022-10-21T08:59:32.059Z,65.21
2022-10-21T09:00:40.690Z,64.64
2022-10-21T09:01:48.406Z,67.04
2022-10-21T09:03:19.859Z,72.93
2022-10-21T09:04:28.384Z,74.44
2022-10-21T09:05:52.075Z,68.41
2022-10-21T09:07:27.451Z,62.34
2022-10-21T09:08:39.041Z,60.82
2022-10-21T09:09:47.663Z,70.60
2022-10-21T09:11:01.896Z,72.40
2022-10-21T09:12:13.785Z,60.82
2022-10-21T09:13:52.359Z,60.04
2022-10-21T09:15:07.298Z,61.34
2022-10-21T09:16:14.036Z,65.60
2022-10-21T09:17:38.878Z,63.68
2022-10-21T09:18:45.543Z,64.80
2022-10-21T09:19:54.194Z,58.84
2022-10-21T09:21:05.886Z,68.06
2022-10-21T09:22:34.414Z,64.10
2022-10-21T09:24:46.584Z,59.34
2022-10-21T09:25:54.871Z,60.57
2022-10-21T09:26:58.363Z,60.13
2022-10-21T09:28:04.396Z,60.60
2022-10-21T09:29:16.378Z,61.27
2022-10-21T09:30:21.452Z,61.63
2022-10-21T09:31:23.467Z,61.92
2022-10-21T09:33:54.630Z,62.35
2022-10-21T09:35:06.269Z,61.76
2022-10-21T09:36:14.626Z,60.63
2022-10-21T09:37:30.481Z,60.38
2022-10-21T09:38:47.241Z,60.10
2022-10-21T09:40:18.560Z,60.07
2022-10-21T09:41:23.610Z,60.27
2022-10-21T09:43:30.356Z,58.43
2022-10-21T09:44:32.261Z,58.62
2022-10-21T09:45:40.588Z,58.62
2022-10-21T09:46:48.701Z,58.76
2022-10-21T09:48:03.921Z,58.84
2022-10-21T09:49:47.266Z,59.10
2022-10-21T09:50:16.785Z,59.05
2022-10-21T09:51:28.361Z,59.39
2022-10-21T09:52:34.479Z,59.14
2022-10-21T09:53:53.907Z,58.43
2022-10-21T09:54:54.397Z,58.24
2022-10-21T09:56:07.130Z,58.16
2022-10-21T09:57:21.878Z,58.99
2022-10-21T09:58:30.309Z,59.47
2022-10-21T09:59:33.406Z,59.91
2022-10-21T10:00:45.728Z,59.83
2022-10-21T10:01:49.119Z,59.74
2022-10-21T10:02:51.892Z,60.16
2022-10-21T10:03:54.047Z,59.76
2022-10-21T10:04:56.166Z,59.28
2022-10-21T10:05:58.337Z,59.68
2022-10-21T10:07:03.502Z,59.37
2022-10-21T10:08:28.895Z,59.71
2022-10-21T10:09:34.491Z,59.43
2022-10-21T10:10:37.678Z,59.36
2022-10-21T10:11:49.563Z,59.79
2022-10-21T10:12:58.284Z,60.04
2022-10-21T10:14:04.322Z,60.66
2022-10-21T10:16:34.714Z,59.70
2022-10-21T10:17:36.558Z,59.36
2022-10-21T10:18:38.799Z,59.27
2022-10-21T10:19:40.957Z,59.28
2022-10-21T10:20:44.013Z,59.46
2022-10-21T10:21:46.404Z,59.05
2022-10-21T10:23:04.243Z,59.03
2022-10-21T10:24:08.629Z,59.05
2022-10-21T10:25:17.220Z,59.15
2022-10-21T10:26:30.130Z,59.05
2022-10-21T10:27:32.460Z,58.44
2022-10-21T10:28:34.655Z,57.59
2022-10-21T10:29:36.843Z,57.30
2022-10-21T10:30:45.420Z,57.34
2022-10-21T10:31:50.968Z,57.72
2022-10-21T10:32:56.179Z,58.37
2022-10-21T10:34:07.655Z,58.70
2022-10-21T10:36:32.409Z,59.04
2022-10-21T10:37:36.921Z,59.00
2022-10-21T10:38:42.582Z,59.00
2022-10-21T10:39:48.168Z,55.90
2022-10-21T10:40:53.220Z,55.79
2022-10-21T10:41:55.423Z,55.80
2022-10-21T10:43:16.147Z,54.13
2022-10-21T10:44:40.602Z,52.25
2022-10-21T10:45:50.072Z,50.98
2022-10-21T10:46:58.240Z,52.72
2022-10-21T10:48:02.736Z,53.08
2022-10-21T10:49:19.850Z,54.33
2022-10-21T10:50:39.763Z,54.11
2022-10-21T10:51:45.391Z,54.65
2022-10-21T10:52:47.550Z,54.91
2022-10-21T10:54:08.214Z,54.98
2022-10-21T10:55:17.627Z,55.30
2022-10-21T10:56:38.193Z,54.36
2022-10-21T10:57:46.126Z,54.58
2022-10-21T10:59:02.901Z,54.20
2022-10-21T11:00:21.965Z,53.26
2022-10-21T11:01:28.498Z,53.83
2022-10-21T11:02:50.259Z,53.95
2022-10-21T11:03:56.559Z,54.05
2022-10-21T11:05:35.821Z,54.11
2022-10-21T11:06:41.620Z,53.41
2022-10-21T11:07:49.869Z,54.19
2022-10-21T11:08:56.859Z,54.04
2022-10-21T11:10:02.469Z,53.83
2022-10-21T11:11:25.869Z,53.47
2022-10-21T11:12:28.451Z,54.83
2022-10-21T11:13:30.944Z,54.23
2022-10-21T11:14:33.425Z,60.52
2022-10-21T11:15:51.183Z,56.63
2022-10-21T11:17:00.654Z,56.06
2022-10-21T15:27:19.974Z,63.83
2022-10-21T15:28:22.231Z,64.29
2022-10-21T15:29:31.514Z,62.10
2022-10-21T15:30:33.455Z,61.89
2022-10-21T15:31:35.109Z,62.14
2022-10-21T15:32:37.846Z,62.98
2022-10-21T15:33:39.587Z,63.93
2022-10-21T15:34:41.844Z,63.76
2022-10-21T15:35:43.716Z,63.83
2022-10-21T15:36:45.653Z,61.62
2022-10-21T15:37:49.719Z,61.62
2022-10-21T15:38:52.166Z,61.00
2022-10-21T15:39:55.242Z,60.50
2022-10-21T15:40:58.550Z,60.97
2022-10-21T15:42:01.148Z,60.94
2022-10-21T15:43:03.831Z,61.74
2022-10-21T15:44:24.564Z,62.85
2022-10-21T15:45:29.804Z,62.98
2022-10-21T15:46:34.030Z,63.09
2022-10-21T15:47:35.899Z,63.17
2022-10-21T15:48:37.773Z,62.78
2022-10-21T15:49:41.279Z,61.30
2022-10-21T15:50:43.862Z,61.03
2022-10-21T15:51:47.755Z,60.77
2022-10-21T15:52:49.642Z,60.55
2022-10-21T15:53:52.013Z,60.76
2022-10-21T15:54:54.028Z,60.64
2022-10-21T15:55:56.473Z,60.68
2022-10-21T15:57:00.470Z,60.59
2022-10-21T15:58:03.064Z,60.79
2022-10-21T15:59:05.175Z,61.06
2022-10-21T16:00:20.749Z,60.51
2022-10-21T16:01:24.611Z,60.75
2022-10-21T16:02:26.569Z,60.74
2022-10-21T16:03:29.082Z,60.98
2022-10-21T16:04:30.934Z,61.09
2022-10-21T16:05:32.867Z,60.96
2022-10-21T16:06:35.788Z,60.94
2022-10-21T16:07:38.845Z,60.74
2022-10-21T16:08:41.271Z,60.84
2022-10-21T16:09:43.527Z,60.95
2022-10-21T16:10:45.877Z,60.88
2022-10-21T16:11:58.863Z,60.80
2022-10-21T16:12:54.959Z,60.99
2022-10-21T16:13:57.576Z,61.36
2022-10-21T16:14:59.487Z,61.77
2022-10-21T16:16:02.052Z,62.24
2022-10-21T16:17:04.176Z,62.69
2022-10-21T16:19:20.834Z,63.38
2022-10-21T16:20:28.841Z,63.45
2022-10-21T16:21:30.972Z,63.50
2022-10-21T16:22:32.798Z,63.17
2022-10-21T16:23:34.566Z,62.88
2022-10-21T16:24:37.502Z,62.81
2022-10-21T16:25:39.438Z,63.03
2022-10-21T16:26:45.073Z,63.13
2022-10-21T16:28:02.463Z,63.48
2022-10-21T16:28:54.313Z,62.86
2022-10-21T16:29:57.064Z,63.07
2022-10-21T16:30:59.298Z,63.08
2022-10-21T16:32:02.460Z,63.29
2022-10-21T16:33:05.443Z,63.93
2022-10-21T16:34:07.490Z,64.31
2022-10-21T16:35:11.239Z,64.20
2022-10-21T16:36:20.374Z,64.94
2022-10-21T16:37:25.846Z,65.13
2022-10-21T16:38:27.938Z,65.11
2022-10-21T16:39:29.825Z,65.76
2022-10-21T16:40:34.677Z,64.91
2022-10-21T16:41:36.936Z,65.31
2022-10-21T16:42:42.271Z,65.81
2022-10-21T16:43:44.391Z,66.19
2022-10-21T16:44:47.495Z,66.33
2022-10-21T16:45:49.549Z,65.98
2022-10-21T16:46:53.337Z,66.82
2022-10-21T16:47:58.887Z,67.18
2022-10-21T16:49:06.890Z,67.21
2022-10-21T16:50:13.034Z,67.69
2022-10-21T16:51:16.418Z,67.30
2022-10-21T16:52:19.431Z,67.52
2022-10-21T16:53:21.274Z,68.45
2022-10-21T16:54:24.271Z,68.56
2022-10-21T16:55:26.423Z,68.56
2022-10-21T16:57:31.520Z,68.83
2022-10-21T16:58:33.522Z,69.16
2022-10-21T16:59:35.746Z,68.86
2022-10-21T17:00:38.185Z,67.99
2022-10-21T17:01:40.719Z,68.46
2022-10-21T17:02:46.710Z,67.75
2022-10-21T17:03:50.392Z,68.30
2022-10-21T17:04:53.520Z,68.19
2022-10-21T17:05:55.378Z,67.96
2022-10-21T17:07:00.004Z,67.80
2022-10-21T17:08:01.274Z,69.37
2022-10-21T17:09:04.210Z,69.36
2022-10-21T17:10:08.040Z,69.03
2022-10-21T17:11:13.670Z,69.47
2022-10-21T17:12:15.796Z,69.29
2022-10-21T17:13:20.184Z,69.33
2022-10-21T17:14:22.864Z,69.57
2022-10-21T17:15:25.879Z,69.57
2022-10-21T17:16:29.209Z,69.26
2022-10-21T17:17:31.817Z,69.62
2022-10-21T17:18:33.845Z,69.28
2022-10-21T17:19:36.948Z,69.84
2022-10-21T17:20:41.223Z,69.26
2022-10-21T17:21:45.402Z,69.56
2022-10-21T17:22:49.727Z,69.57
2022-10-21T17:23:52.946Z,69.49
2022-10-21T17:24:54.994Z,70.00
2022-10-21T17:25:57.181Z,70.05
2022-10-21T17:26:59.160Z,69.91
2022-10-21T17:28:02.430Z,69.95
2022-10-21T17:29:04.799Z,70.30
2022-10-21T17:30:10.608Z,70.31
2022-10-21T17:31:17.441Z,69.78
2022-10-21T17:32:21.759Z,69.66
2022-10-21T17:33:24.831Z,69.16
2022-10-21T17:34:29.983Z,69.16
2022-10-21T17:35:32.526Z,69.29
2022-10-21T17:36:36.556Z,70.00
2022-10-21T17:37:38.869Z,70.09
2022-10-21T17:38:42.917Z,70.03
2022-10-21T17:39:46.950Z,69.38
2022-10-21T17:40:49.031Z,69.68
2022-10-21T17:41:52.537Z,68.72
2022-10-21T17:42:54.730Z,69.40
2022-10-21T17:43:56.995Z,69.09
2022-10-21T17:45:02.870Z,68.39
2022-10-21T17:46:04.039Z,68.00
2022-10-21T17:47:06.563Z,68.06
2022-10-21T17:48:09.776Z,68.84
2022-10-21T17:49:13.179Z,68.84
2022-10-21T17:50:15.708Z,68.44
2022-10-21T17:51:18.234Z,69.26
2022-10-21T17:52:20.638Z,69.49
2022-10-21T17:53:24.061Z,69.01
2022-10-21T17:54:29.158Z,68.60
2022-10-21T17:55:30.193Z,68.51
2022-10-21T17:56:33.937Z,69.21
2022-10-21T17:57:37.100Z,68.37
2022-10-21T17:58:40.898Z,68.37
2022-10-21T17:59:43.259Z,69.30
2022-10-21T18:00:46.684Z,69.90
2022-10-21T18:01:49.039Z,69.87
2022-10-21T18:02:51.164Z,70.21
2022-10-21T18:03:54.995Z,70.53
2022-10-21T18:04:57.202Z,70.27
2022-10-21T18:05:59.768Z,70.05
2022-10-21T18:07:02.264Z,70.53
2022-10-21T18:08:04.348Z,70.56
2022-10-21T18:09:06.947Z,70.97
2022-10-21T18:10:09.748Z,69.37
2022-10-21T18:11:16.119Z,68.99
2022-10-21T18:12:19.058Z,69.29
2022-10-21T18:13:24.022Z,69.55
2022-10-21T18:14:26.606Z,69.55
2022-10-21T18:15:29.177Z,69.18
2022-10-21T18:16:33.007Z,69.21
2022-10-21T18:17:35.734Z,69.18